sensor_id;sensor_type;location;lat;lon;timestamp;pressure;altitude;pressure_sealevel;temperature;humidity
11415;BME280;5763;42.714;23.244;2023-02-03T00:01:52;94791.50;;;4.47;66.25
11415;BME280;5763;42.714;23.244;2023-02-03T00:04:20;94788.91;;;4.40;66.98
11415;BME280;5763;42.714;23.244;2023-02-03T00:06:47;94794.09;;;4.28;67.87
11415;BME280;5763;42.714;23.244;2023-02-03T00:09:15;94788.84;;;4.17;68.24
11415;BME280;5763;42.714;23.244;2023-02-03T00:11:42;94802.00;;;4.15;68.75
11415;BME280;5763;42.714;23.244;2023-02-03T00:14:09;94794.31;;;4.10;69.41
11415;BME280;5763;42.714;23.244;2023-02-03T00:16:35;94801.28;;;4.11;69.71
11415;BME280;5763;42.714;23.244;2023-02-03T00:19:02;94788.06;;;4.17;69.52
11415;BME280;5763;42.714;23.244;2023-02-03T00:21:30;94805.53;;;4.12;70.17
11415;BME280;5763;42.714;23.244;2023-02-03T00:23:57;94816.72;;;4.14;70.13
11415;BME280;5763;42.714;23.244;2023-02-03T00:26:24;94817.81;;;4.20;70.39
11415;BME280;5763;42.714;23.244;2023-02-03T00:28:53;94810.50;;;4.17;70.56
11415;BME280;5763;42.714;23.244;2023-02-03T00:31:21;94815.81;;;4.24;70.30
11415;BME280;5763;42.714;23.244;2023-02-03T00:33:52;94826.16;;;4.33;70.05
11415;BME280;5763;42.714;23.244;2023-02-03T00:36:19;94826.09;;;4.36;70.02
11415;BME280;5763;42.714;23.244;2023-02-03T00:38:48;94825.25;;;4.43;69.67
11415;BME280;5763;42.714;23.244;2023-02-03T00:41:15;94827.63;;;4.37;69.85
11415;BME280;5763;42.714;23.244;2023-02-03T00:43:42;94839.59;;;4.40;69.94
11415;BME280;5763;42.714;23.244;2023-02-03T00:46:09;94830.78;;;4.36;70.31
11415;BME280;5763;42.714;23.244;2023-02-03T00:48:36;94829.59;;;4.37;70.39
11415;BME280;5763;42.714;23.244;2023-02-03T00:51:03;94827.28;;;4.35;70.41
11415;BME280;5763;42.714;23.244;2023-02-03T00:53:29;94826.50;;;4.35;70.41
11415;BME280;5763;42.714;23.244;2023-02-03T00:55:57;94819.94;;;4.36;70.16
11415;BME280;5763;42.714;23.244;2023-02-03T00:58:24;94823.44;;;4.33;70.34
11415;BME280;5763;42.714;23.244;2023-02-03T01:00:53;94831.16;;;4.34;70.17
11415;BME280;5763;42.714;23.244;2023-02-03T01:03:21;94851.63;;;4.39;70.01
11415;BME280;5763;42.714;23.244;2023-02-03T01:05:48;94853.13;;;4.40;69.97
11415;BME280;5763;42.714;23.244;2023-02-03T01:08:15;94841.22;;;4.34;70.15
11415;BME280;5763;42.714;23.244;2023-02-03T01:10:41;94848.22;;;4.31;69.91
11415;BME280;5763;42.714;23.244;2023-02-03T01:13:09;94848.28;;;4.28;69.42
11415;BME280;5763;42.714;23.244;2023-02-03T01:15:36;94847.97;;;4.22;69.45
11415;BME280;5763;42.714;23.244;2023-02-03T01:18:03;94846.47;;;4.18;69.34
11415;BME280;5763;42.714;23.244;2023-02-03T01:20:30;94843.00;;;4.14;69.90
11415;BME280;5763;42.714;23.244;2023-02-03T01:22:56;94852.34;;;4.09;69.66
11415;BME280;5763;42.714;23.244;2023-02-03T01:25:23;94847.03;;;4.02;69.74
11415;BME280;5763;42.714;23.244;2023-02-03T01:27:50;94850.88;;;4.05;69.78
11415;BME280;5763;42.714;23.244;2023-02-03T01:30:18;94851.28;;;4.03;69.94
11415;BME280;5763;42.714;23.244;2023-02-03T01:32:45;94841.31;;;3.93;69.94
11415;BME280;5763;42.714;23.244;2023-02-03T01:35:11;94856.41;;;3.94;69.74
11415;BME280;5763;42.714;23.244;2023-02-03T01:37:38;94850.28;;;3.87;70.11
11415;BME280;5763;42.714;23.244;2023-02-03T01:40:06;94857.31;;;3.81;70.26
11415;BME280;5763;42.714;23.244;2023-02-03T01:42:33;94855.81;;;3.76;70.20
11415;BME280;5763;42.714;23.244;2023-02-03T01:45:00;94860.28;;;3.56;70.92
11415;BME280;5763;42.714;23.244;2023-02-03T01:47:32;94850.59;;;3.55;70.82
11415;BME280;5763;42.714;23.244;2023-02-03T01:50:10;94859.06;;;3.61;70.97
11415;BME280;5763;42.714;23.244;2023-02-03T01:52:41;94853.69;;;3.57;70.75
11415;BME280;5763;42.714;23.244;2023-02-03T01:55:13;94861.69;;;3.68;70.63
11415;BME280;5763;42.714;23.244;2023-02-03T01:57:45;94852.00;;;3.70;70.07
11415;BME280;5763;42.714;23.244;2023-02-03T02:00:13;94853.56;;;3.71;69.85
11415;BME280;5763;42.714;23.244;2023-02-03T02:02:43;94858.53;;;3.73;69.70
11415;BME280;5763;42.714;23.244;2023-02-03T02:05:15;94858.84;;;3.82;69.46
11415;BME280;5763;42.714;23.244;2023-02-03T02:07:43;94856.13;;;3.82;69.63
11415;BME280;5763;42.714;23.244;2023-02-03T02:10:11;94856.19;;;3.78;69.46
11415;BME280;5763;42.714;23.244;2023-02-03T02:12:38;94866.47;;;3.90;68.92
11415;BME280;5763;42.714;23.244;2023-02-03T02:15:06;94871.16;;;3.90;68.69
11415;BME280;5763;42.714;23.244;2023-02-03T02:26:56;94880.09;;;3.83;68.58
11415;BME280;5763;42.714;23.244;2023-02-03T02:30:01;94883.59;;;3.80;68.75
11415;BME280;5763;42.714;23.244;2023-02-03T02:32:44;94873.97;;;3.76;69.03
11415;BME280;5763;42.714;23.244;2023-02-03T02:35:19;94861.25;;;3.73;68.78
11415;BME280;5763;42.714;23.244;2023-02-03T02:37:52;94868.28;;;3.67;69.46
11415;BME280;5763;42.714;23.244;2023-02-03T02:40:27;94877.53;;;3.69;69.06
11415;BME280;5763;42.714;23.244;2023-02-03T02:43:03;94870.63;;;3.65;69.03
11415;BME280;5763;42.714;23.244;2023-02-03T02:45:43;94848.41;;;3.43;69.82
11415;BME280;5763;42.714;23.244;2023-02-03T02:48:17;94873.16;;;3.38;70.09
11415;BME280;5763;42.714;23.244;2023-02-03T02:50:48;94882.03;;;3.42;69.69
11415;BME280;5763;42.714;23.244;2023-02-03T02:53:20;94883.22;;;3.38;69.55
11415;BME280;5763;42.714;23.244;2023-02-03T02:55:47;94900.22;;;3.38;68.74
11415;BME280;5763;42.714;23.244;2023-02-03T02:58:16;94899.41;;;3.41;69.08
11415;BME280;5763;42.714;23.244;2023-02-03T03:00:45;94895.19;;;3.37;68.84
11415;BME280;5763;42.714;23.244;2023-02-03T03:03:15;94894.38;;;3.43;68.53
11415;BME280;5763;42.714;23.244;2023-02-03T03:05:47;94893.25;;;3.37;68.30
11415;BME280;5763;42.714;23.244;2023-02-03T03:08:15;94899.00;;;3.43;68.04
11415;BME280;5763;42.714;23.244;2023-02-03T03:10:43;94897.44;;;3.49;67.70
11415;BME280;5763;42.714;23.244;2023-02-03T03:13:14;94910.22;;;3.45;67.73
11415;BME280;5763;42.714;23.244;2023-02-03T03:15:42;94915.59;;;3.48;67.44
11415;BME280;5763;42.714;23.244;2023-02-03T03:18:15;94921.44;;;3.40;67.50
11415;BME280;5763;42.714;23.244;2023-02-03T03:20:45;94923.72;;;3.45;67.15
11415;BME280;5763;42.714;23.244;2023-02-03T03:23:18;94922.53;;;3.49;66.68
11415;BME280;5763;42.714;23.244;2023-02-03T03:25:50;94929.56;;;3.40;66.11
11415;BME280;5763;42.714;23.244;2023-02-03T03:28:24;94921.06;;;3.41;66.43
11415;BME280;5763;42.714;23.244;2023-02-03T03:30:53;94934.19;;;3.39;66.19
11415;BME280;5763;42.714;23.244;2023-02-03T03:33:21;94925.34;;;3.35;66.61
11415;BME280;5763;42.714;23.244;2023-02-03T03:35:53;94925.31;;;3.39;66.58
11415;BME280;5763;42.714;23.244;2023-02-03T03:38:25;94928.41;;;3.37;66.47
11415;BME280;5763;42.714;23.244;2023-02-03T03:41:01;94924.25;;;3.26;66.67
11415;BME280;5763;42.714;23.244;2023-02-03T03:43:34;94921.88;;;3.35;66.66
11415;BME280;5763;42.714;23.244;2023-02-03T03:46:09;94924.19;;;3.36;66.79
11415;BME280;5763;42.714;23.244;2023-02-03T03:48:44;94917.28;;;3.28;67.11
11415;BME280;5763;42.714;23.244;2023-02-03T03:51:18;94917.28;;;3.28;67.35
11415;BME280;5763;42.714;23.244;2023-02-03T03:53:48;94921.09;;;3.34;67.17
11415;BME280;5763;42.714;23.244;2023-02-03T03:56:26;94921.84;;;3.38;66.53
11415;BME280;5763;42.714;23.244;2023-02-03T03:58:53;94915.31;;;3.32;66.83
11415;BME280;5763;42.714;23.244;2023-02-03T04:01:21;94918.88;;;3.22;67.12
11415;BME280;5763;42.714;23.244;2023-02-03T04:03:53;94929.25;;;3.27;67.03
11415;BME280;5763;42.714;23.244;2023-02-03T04:06:22;94922.72;;;3.25;67.11
11415;BME280;5763;42.714;23.244;2023-02-03T04:08:49;94926.97;;;3.22;66.57
11415;BME280;5763;42.714;23.244;2023-02-03T04:11:16;94933.53;;;3.25;66.66
11415;BME280;5763;42.714;23.244;2023-02-03T04:13:56;94929.72;;;3.19;66.84
11415;BME280;5763;42.714;23.244;2023-02-03T04:16:23;94939.75;;;3.18;66.37
11415;BME280;5763;42.714;23.244;2023-02-03T04:18:51;94944.41;;;3.18;66.27
11415;BME280;5763;42.714;23.244;2023-02-03T04:21:18;94945.16;;;3.18;65.89
11415;BME280;5763;42.714;23.244;2023-02-03T04:23:44;94950.97;;;3.13;66.12
11415;BME280;5763;42.714;23.244;2023-02-03T04:26:11;94928.66;;;3.02;66.48
11415;BME280;5763;42.714;23.244;2023-02-03T04:28:38;94946.69;;;3.19;66.30
11415;BME280;5763;42.714;23.244;2023-02-03T04:31:05;94954.72;;;3.33;65.92
11415;BME280;5763;42.714;23.244;2023-02-03T04:33:31;94953.56;;;3.31;65.56
11415;BME280;5763;42.714;23.244;2023-02-03T04:35:59;94954.75;;;3.30;65.63
11415;BME280;5763;42.714;23.244;2023-02-03T04:38:26;94964.81;;;3.26;65.73
11415;BME280;5763;42.714;23.244;2023-02-03T04:40:53;94971.00;;;3.26;65.64
11415;BME280;5763;42.714;23.244;2023-02-03T04:43:20;94962.50;;;3.28;65.72
11415;BME280;5763;42.714;23.244;2023-02-03T04:45:47;94975.19;;;3.31;65.68
11415;BME280;5763;42.714;23.244;2023-02-03T04:48:13;94946.38;;;3.07;65.31
11415;BME280;5763;42.714;23.244;2023-02-03T04:50:40;94964.06;;;3.22;65.77
11415;BME280;5763;42.714;23.244;2023-02-03T04:53:09;94969.88;;;3.20;65.67
11415;BME280;5763;42.714;23.244;2023-02-03T04:55:35;94973.00;;;3.15;66.00
11415;BME280;5763;42.714;23.244;2023-02-03T04:58:02;94978.72;;;3.28;65.72
11415;BME280;5763;42.714;23.244;2023-02-03T05:00:29;94984.84;;;3.32;66.15
11415;BME280;5763;42.714;23.244;2023-02-03T05:02:56;94990.25;;;3.35;65.12
11415;BME280;5763;42.714;23.244;2023-02-03T05:05:23;94993.69;;;3.39;65.03
11415;BME280;5763;42.714;23.244;2023-02-03T05:07:49;94992.53;;;3.40;65.13
11415;BME280;5763;42.714;23.244;2023-02-03T05:10:18;94995.66;;;3.35;65.00
11415;BME280;5763;42.714;23.244;2023-02-03T05:12:44;94997.19;;;3.36;65.15
11415;BME280;5763;42.714;23.244;2023-02-03T05:15:11;95006.47;;;3.32;65.42
11415;BME280;5763;42.714;23.244;2023-02-03T05:17:38;95004.22;;;3.23;65.75
11415;BME280;5763;42.714;23.244;2023-02-03T05:20:06;95003.47;;;3.23;65.75
11415;BME280;5763;42.714;23.244;2023-02-03T05:22:33;95009.63;;;3.23;66.00
11415;BME280;5763;42.714;23.244;2023-02-03T05:25:00;95011.56;;;3.19;66.14
11415;BME280;5763;42.714;23.244;2023-02-03T05:27:28;95021.97;;;3.28;66.03
11415;BME280;5763;42.714;23.244;2023-02-03T05:29:55;95026.19;;;3.32;65.74
11415;BME280;5763;42.714;23.244;2023-02-03T05:32:22;95032.38;;;3.33;65.67
11415;BME280;5763;42.714;23.244;2023-02-03T05:34:48;95025.06;;;3.26;65.82
11415;BME280;5763;42.714;23.244;2023-02-03T05:37:15;95033.56;;;3.25;65.97
11415;BME280;5763;42.714;23.244;2023-02-03T05:39:42;95036.25;;;3.28;66.42
11415;BME280;5763;42.714;23.244;2023-02-03T05:42:09;95040.09;;;3.31;66.18
11415;BME280;5763;42.714;23.244;2023-02-03T05:44:36;95037.78;;;3.29;66.06
11415;BME280;5763;42.714;23.244;2023-02-03T05:47:03;95036.66;;;3.30;66.10
11415;BME280;5763;42.714;23.244;2023-02-03T05:49:29;95040.53;;;3.22;65.81
11415;BME280;5763;42.714;23.244;2023-02-03T05:51:56;95042.06;;;3.23;65.93
11415;BME280;5763;42.714;23.244;2023-02-03T05:54:23;95049.78;;;3.25;65.81
11415;BME280;5763;42.714;23.244;2023-02-03T05:56:50;95050.16;;;3.30;65.68
11415;BME280;5763;42.714;23.244;2023-02-03T05:59:17;95050.19;;;3.23;65.74
11415;BME280;5763;42.714;23.244;2023-02-03T06:01:45;95052.88;;;3.30;65.69
11415;BME280;5763;42.714;23.244;2023-02-03T06:04:11;95051.25;;;3.40;65.17
11415;BME280;5763;42.714;23.244;2023-02-03T06:06:38;95054.31;;;3.45;64.77
11415;BME280;5763;42.714;23.244;2023-02-03T06:09:06;95056.25;;;3.45;65.02
11415;BME280;5763;42.714;23.244;2023-02-03T06:11:33;95043.88;;;3.47;64.44
11415;BME280;5763;42.714;23.244;2023-02-03T06:14:01;95050.84;;;3.45;64.17
11415;BME280;5763;42.714;23.244;2023-02-03T06:16:28;95060.13;;;3.44;64.39
11415;BME280;5763;42.714;23.244;2023-02-03T06:18:56;95050.16;;;3.27;64.88
11415;BME280;5763;42.714;23.244;2023-02-03T06:21:25;95054.38;;;3.35;64.88
11415;BME280;5763;42.714;23.244;2023-02-03T06:23:52;95053.56;;;3.41;64.59
11415;BME280;5763;42.714;23.244;2023-02-03T06:26:20;95057.44;;;3.40;64.27
11415;BME280;5763;42.714;23.244;2023-02-03T06:28:46;95054.00;;;3.36;64.25
11415;BME280;5763;42.714;23.244;2023-02-03T06:31:13;95053.19;;;3.39;64.32
11415;BME280;5763;42.714;23.244;2023-02-03T06:33:40;95059.34;;;3.43;63.87
11415;BME280;5763;42.714;23.244;2023-02-03T06:36:09;95057.44;;;3.40;64.04
11415;BME280;5763;42.714;23.244;2023-02-03T06:38:36;95062.84;;;3.44;64.26
11415;BME280;5763;42.714;23.244;2023-02-03T06:41:03;95053.91;;;3.47;63.87
11415;BME280;5763;42.714;23.244;2023-02-03T06:43:30;95067.06;;;3.48;63.95
11415;BME280;5763;42.714;23.244;2023-02-03T06:45:56;95075.16;;;3.48;63.46
11415;BME280;5763;42.714;23.244;2023-02-03T06:48:23;95068.25;;;3.37;63.87
11415;BME280;5763;42.714;23.244;2023-02-03T06:50:50;95074.88;;;3.32;63.82
11415;BME280;5763;42.714;23.244;2023-02-03T06:53:18;95072.16;;;3.32;64.06
11415;BME280;5763;42.714;23.244;2023-02-03T06:55:45;95069.44;;;3.36;63.82
11415;BME280;5763;42.714;23.244;2023-02-03T06:58:13;95071.00;;;3.30;63.82
11415;BME280;5763;42.714;23.244;2023-02-03T07:00:39;95077.94;;;3.38;64.04
11415;BME280;5763;42.714;23.244;2023-02-03T07:03:06;95089.50;;;3.38;64.18
11415;BME280;5763;42.714;23.244;2023-02-03T07:05:33;95081.03;;;3.36;64.25
11415;BME280;5763;42.714;23.244;2023-02-03T07:08:01;95088.38;;;3.36;64.17
11415;BME280;5763;42.714;23.244;2023-02-03T07:10:29;95089.47;;;3.45;63.75
11415;BME280;5763;42.714;23.244;2023-02-03T07:13:01;95094.47;;;3.50;63.50
11415;BME280;5763;42.714;23.244;2023-02-03T07:15:27;95104.88;;;3.55;63.40
11415;BME280;5763;42.714;23.244;2023-02-03T07:17:54;95100.63;;;3.61;62.61
11415;BME280;5763;42.714;23.244;2023-02-03T07:20:22;95103.34;;;3.54;62.34
11415;BME280;5763;42.714;23.244;2023-02-03T07:22:53;95101.75;;;3.60;62.41
11415;BME280;5763;42.714;23.244;2023-02-03T07:25:20;95114.84;;;3.72;61.70
11415;BME280;5763;42.714;23.244;2023-02-03T07:27:49;95107.13;;;3.71;61.40
11415;BME280;5763;42.714;23.244;2023-02-03T07:30:16;95121.00;;;3.80;61.45
11415;BME280;5763;42.714;23.244;2023-02-03T07:32:46;95120.97;;;3.83;60.97
11415;BME280;5763;42.714;23.244;2023-02-03T07:35:13;95116.22;;;3.98;60.47
11415;BME280;5763;42.714;23.244;2023-02-03T07:37:40;95119.56;;;4.19;59.75
11415;BME280;5763;42.714;23.244;2023-02-03T07:40:08;95129.50;;;4.33;59.21
11415;BME280;5763;42.714;23.244;2023-02-03T07:42:37;95128.59;;;4.53;58.67
11415;BME280;5763;42.714;23.244;2023-02-03T07:45:07;95136.56;;;4.67;58.64
11415;BME280;5763;42.714;23.244;2023-02-03T07:47:33;95136.34;;;4.92;57.01
11415;BME280;5763;42.714;23.244;2023-02-03T07:50:00;95136.84;;;5.17;56.91
11415;BME280;5763;42.714;23.244;2023-02-03T07:52:27;95144.19;;;5.20;55.88
11415;BME280;5763;42.714;23.244;2023-02-03T07:54:54;95145.69;;;5.24;56.09
11415;BME280;5763;42.714;23.244;2023-02-03T07:57:20;95142.91;;;5.31;55.88
11415;BME280;5763;42.714;23.244;2023-02-03T07:59:47;95143.94;;;5.41;55.67
11415;BME280;5763;42.714;23.244;2023-02-03T08:02:16;95158.41;;;5.64;55.49
11415;BME280;5763;42.714;23.244;2023-02-03T08:04:43;95167.88;;;5.83;55.07
11415;BME280;5763;42.714;23.244;2023-02-03T08:07:10;95164.03;;;5.80;54.96
11415;BME280;5763;42.714;23.244;2023-02-03T08:09:37;95171.88;;;6.05;54.28
11415;BME280;5763;42.714;23.244;2023-02-03T08:12:04;95164.66;;;6.21;53.43
11415;BME280;5763;42.714;23.244;2023-02-03T08:14:31;95166.25;;;6.45;52.71
11415;BME280;5763;42.714;23.244;2023-02-03T08:16:58;95161.78;;;6.81;52.29
11415;BME280;5763;42.714;23.244;2023-02-03T08:19:26;95157.94;;;7.02;50.80
11415;BME280;5763;42.714;23.244;2023-02-03T08:21:53;95149.47;;;6.96;49.96
11415;BME280;5763;42.714;23.244;2023-02-03T08:24:21;95150.78;;;7.31;50.05
11415;BME280;5763;42.714;23.244;2023-02-03T08:26:47;95143.06;;;7.49;50.19
11415;BME280;5763;42.714;23.244;2023-02-03T08:29:14;95138.84;;;7.83;48.48
11415;BME280;5763;42.714;23.244;2023-02-03T08:31:41;95144.38;;;8.15;47.29
11415;BME280;5763;42.714;23.244;2023-02-03T08:34:08;95145.63;;;8.30;46.31
11415;BME280;5763;42.714;23.244;2023-02-03T08:36:36;95151.63;;;8.41;46.17
11415;BME280;5763;42.714;23.244;2023-02-03T08:39:05;95157.78;;;8.61;45.38
11415;BME280;5763;42.714;23.244;2023-02-03T08:41:31;95153.69;;;8.85;42.96
11415;BME280;5763;42.714;23.244;2023-02-03T08:43:58;95149.75;;;9.02;43.35
11415;BME280;5763;42.714;23.244;2023-02-03T08:46:25;95169.47;;;8.26;44.56
11415;BME280;5763;42.714;23.244;2023-02-03T08:48:52;95165.31;;;7.83;46.18
11415;BME280;5763;42.714;23.244;2023-02-03T08:51:21;95152.69;;;7.92;46.59
11415;BME280;5763;42.714;23.244;2023-02-03T08:53:50;95167.88;;;8.29;45.95
11415;BME280;5763;42.714;23.244;2023-02-03T08:56:17;95170.28;;;8.43;46.37
11415;BME280;5763;42.714;23.244;2023-02-03T08:58:44;95171.00;;;8.63;46.66
11415;BME280;5763;42.714;23.244;2023-02-03T09:01:12;95176.09;;;8.45;45.71
11415;BME280;5763;42.714;23.244;2023-02-03T09:03:39;95170.25;;;8.27;46.26
11415;BME280;5763;42.714;23.244;2023-02-03T09:06:06;95165.44;;;8.34;46.65
11415;BME280;5763;42.714;23.244;2023-02-03T09:08:36;95163.94;;;8.81;45.89
11415;BME280;5763;42.714;23.244;2023-02-03T09:11:08;95155.56;;;9.04;45.06
11415;BME280;5763;42.714;23.244;2023-02-03T09:13:35;95161.34;;;9.06;44.79
11415;BME280;5763;42.714;23.244;2023-02-03T09:16:03;95158.28;;;9.20;44.54
11415;BME280;5763;42.714;23.244;2023-02-03T09:18:30;95146.78;;;9.41;43.88
11415;BME280;5763;42.714;23.244;2023-02-03T09:21:00;95160.19;;;8.75;45.12
11415;BME280;5763;42.714;23.244;2023-02-03T09:23:27;95152.22;;;9.13;45.60
11415;BME280;5763;42.714;23.244;2023-02-03T09:25:54;95168.44;;;9.48;44.04
11415;BME280;5763;42.714;23.244;2023-02-03T09:28:23;95140.50;;;9.28;42.25
11415;BME280;5763;42.714;23.244;2023-02-03T09:30:50;95157.19;;;9.02;42.80
11415;BME280;5763;42.714;23.244;2023-02-03T09:33:16;95146.00;;;9.12;42.28
11415;BME280;5763;42.714;23.244;2023-02-03T09:35:50;95145.44;;;9.33;42.91
11415;BME280;5763;42.714;23.244;2023-02-03T09:38:17;95145.59;;;9.71;41.15
11415;BME280;5763;42.714;23.244;2023-02-03T09:40:45;95148.47;;;9.80;40.12
11415;BME280;5763;42.714;23.244;2023-02-03T09:43:29;95147.50;;;10.27;40.06
11415;BME280;5763;42.714;23.244;2023-02-03T09:46:02;95135.88;;;10.23;39.07
11415;BME280;5763;42.714;23.244;2023-02-03T09:48:35;95138.06;;;10.16;39.53
11415;BME280;5763;42.714;23.244;2023-02-03T09:51:07;95137.69;;;10.01;39.88
11415;BME280;5763;42.714;23.244;2023-02-03T09:53:46;95137.81;;;9.41;40.64
11415;BME280;5763;42.714;23.244;2023-02-03T09:56:21;95137.53;;;9.51;40.33
11415;BME280;5763;42.714;23.244;2023-02-03T09:58:52;95136.72;;;9.38;41.10
11415;BME280;5763;42.714;23.244;2023-02-03T10:01:20;95133.56;;;9.68;39.47
11415;BME280;5763;42.714;23.244;2023-02-03T10:03:51;95140.03;;;10.40;39.35
11415;BME280;5763;42.714;23.244;2023-02-03T10:06:30;95135.91;;;10.61;37.88
11415;BME280;5763;42.714;23.244;2023-02-03T10:09:11;95137.19;;;10.69;37.67
11415;BME280;5763;42.714;23.244;2023-02-03T10:11:52;95136.53;;;10.77;38.16
11415;BME280;5763;42.714;23.244;2023-02-03T10:14:32;95149.56;;;10.86;37.68
11415;BME280;5763;42.714;23.244;2023-02-03T10:17:18;95147.59;;;10.49;38.27
11415;BME280;5763;42.714;23.244;2023-02-03T10:19:50;95141.34;;;9.41;39.18
11415;BME280;5763;42.714;23.244;2023-02-03T10:22:22;95146.53;;;8.59;38.78
11415;BME280;5763;42.714;23.244;2023-02-03T10:24:55;95121.31;;;7.84;39.61
11415;BME280;5763;42.714;23.244;2023-02-03T10:27:24;95126.09;;;7.61;40.12
11415;BME280;5763;42.714;23.244;2023-02-03T10:29:56;95131.75;;;7.50;41.12
11415;BME280;5763;42.714;23.244;2023-02-03T10:32:26;95123.66;;;7.66;42.32
11415;BME280;5763;42.714;23.244;2023-02-03T10:34:53;95122.81;;;7.30;42.50
11415;BME280;5763;42.714;23.244;2023-02-03T10:37:25;95130.19;;;7.10;43.48
11415;BME280;5763;42.714;23.244;2023-02-03T10:39:54;95111.84;;;7.34;43.89
11415;BME280;5763;42.714;23.244;2023-02-03T10:42:23;95108.91;;;7.25;43.62
11415;BME280;5763;42.714;23.244;2023-02-03T10:44:55;95110.44;;;7.06;43.76
11415;BME280;5763;42.714;23.244;2023-02-03T10:47:28;95126.91;;;6.76;43.97
11415;BME280;5763;42.714;23.244;2023-02-03T10:50:02;95128.44;;;6.54;44.37
11415;BME280;5763;42.714;23.244;2023-02-03T10:52:30;95113.88;;;6.18;43.31
11415;BME280;5763;42.714;23.244;2023-02-03T10:54:58;95126.13;;;6.03;43.62
11415;BME280;5763;42.714;23.244;2023-02-03T10:57:27;95109.53;;;6.70;42.86
11415;BME280;5763;42.714;23.244;2023-02-03T11:00:07;95112.72;;;7.50;41.90
11415;BME280;5763;42.714;23.244;2023-02-03T11:02:34;95109.19;;;8.24;39.10
11415;BME280;5763;42.714;23.244;2023-02-03T11:05:10;95107.13;;;8.76;37.29
11415;BME280;5763;42.714;23.244;2023-02-03T11:07:37;95103.31;;;8.74;37.94
11415;BME280;5763;42.714;23.244;2023-02-03T11:10:25;95109.81;;;9.53;37.39
11415;BME280;5763;42.714;23.244;2023-02-03T11:13:10;95098.69;;;10.63;35.40
11415;BME280;5763;42.714;23.244;2023-02-03T11:15:43;95093.41;;;11.15;34.24
11415;BME280;5763;42.714;23.244;2023-02-03T11:18:34;95091.66;;;11.43;32.85
11415;BME280;5763;42.714;23.244;2023-02-03T11:21:05;95079.41;;;11.69;32.91
11415;BME280;5763;42.714;23.244;2023-02-03T11:23:33;95077.97;;;11.86;31.50
11415;BME280;5763;42.714;23.244;2023-02-03T11:26:08;95055.94;;;11.68;32.55
11415;BME280;5763;42.714;23.244;2023-02-03T11:28:36;95051.19;;;11.90;33.07
11415;BME280;5763;42.714;23.244;2023-02-03T11:31:15;95059.53;;;12.17;32.00
11415;BME280;5763;42.714;23.244;2023-02-03T11:33:47;95055.44;;;11.26;31.11
11415;BME280;5763;42.714;23.244;2023-02-03T11:36:14;95061.16;;;10.26;32.54
11415;BME280;5763;42.714;23.244;2023-02-03T11:38:42;95062.69;;;9.49;33.58
11415;BME280;5763;42.714;23.244;2023-02-03T11:41:15;95058.09;;;9.46;34.77
11415;BME280;5763;42.714;23.244;2023-02-03T11:43:42;95063.69;;;10.08;32.45
11415;BME280;5763;42.714;23.244;2023-02-03T11:46:11;95059.94;;;10.65;31.33
11415;BME280;5763;42.714;23.244;2023-02-03T11:48:45;95059.97;;;10.86;30.78
11415;BME280;5763;42.714;23.244;2023-02-03T11:51:25;95064.44;;;10.34;31.98
11415;BME280;5763;42.714;23.244;2023-02-03T11:54:05;95063.38;;;9.65;32.04
11415;BME280;5763;42.714;23.244;2023-02-03T11:56:50;95069.56;;;10.44;31.72
11415;BME280;5763;42.714;23.244;2023-02-03T11:59:35;95062.59;;;11.45;30.67
11415;BME280;5763;42.714;23.244;2023-02-03T12:02:48;95069.94;;;11.91;29.26
11415;BME280;5763;42.714;23.244;2023-02-03T12:05:38;95054.41;;;12.28;28.75
11415;BME280;5763;42.714;23.244;2023-02-03T12:08:20;95049.09;;;11.72;28.60
11415;BME280;5763;42.714;23.244;2023-02-03T12:10:59;95069.63;;;11.12;27.63
11415;BME280;5763;42.714;23.244;2023-02-03T12:13:56;95060.25;;;11.78;27.81
11415;BME280;5763;42.714;23.244;2023-02-03T12:16:38;95077.81;;;11.46;27.14
11415;BME280;5763;42.714;23.244;2023-02-03T12:19:14;95051.19;;;11.47;27.85
11415;BME280;5763;42.714;23.244;2023-02-03T12:21:49;95067.00;;;11.86;27.84
11415;BME280;5763;42.714;23.244;2023-02-03T12:24:25;95060.47;;;11.06;28.23
11415;BME280;5763;42.714;23.244;2023-02-03T12:27:02;95072.28;;;9.94;29.20
11415;BME280;5763;42.714;23.244;2023-02-03T12:29:37;95069.81;;;9.18;30.98
11415;BME280;5763;42.714;23.244;2023-02-03T12:32:13;95061.28;;;8.71;32.73
11415;BME280;5763;42.714;23.244;2023-02-03T12:34:49;95052.41;;;8.19;33.43
11415;BME280;5763;42.714;23.244;2023-02-03T12:37:22;95053.25;;;8.16;33.58
11415;BME280;5763;42.714;23.244;2023-02-03T12:39:52;95063.34;;;8.35;33.63
11415;BME280;5763;42.714;23.244;2023-02-03T12:42:22;95066.66;;;9.60;33.00
11415;BME280;5763;42.714;23.244;2023-02-03T12:44:51;95051.59;;;11.02;30.66
11415;BME280;5763;42.714;23.244;2023-02-03T12:47:27;95054.84;;;11.10;30.35
11415;BME280;5763;42.714;23.244;2023-02-03T12:49:59;95060.88;;;9.71;31.65
11415;BME280;5763;42.714;23.244;2023-02-03T12:52:32;95065.88;;;8.74;33.05
11415;BME280;5763;42.714;23.244;2023-02-03T12:55:17;95053.06;;;7.91;35.45
11415;BME280;5763;42.714;23.244;2023-02-03T12:57:49;95048.13;;;8.82;35.04
11415;BME280;5763;42.714;23.244;2023-02-03T13:00:26;95045.16;;;10.96;32.33
11415;BME280;5763;42.714;23.244;2023-02-03T13:03:12;95034.56;;;12.72;29.86
11415;BME280;5763;42.714;23.244;2023-02-03T13:05:46;95014.28;;;13.69;27.69
11415;BME280;5763;42.714;23.244;2023-02-03T13:08:21;95017.47;;;13.76;27.21
11415;BME280;5763;42.714;23.244;2023-02-03T13:10:52;95017.91;;;13.93;27.18
11415;BME280;5763;42.714;23.244;2023-02-03T13:13:28;95018.53;;;14.29;26.46
11415;BME280;5763;42.714;23.244;2023-02-03T13:15:59;95025.75;;;12.95;28.09
11415;BME280;5763;42.714;23.244;2023-02-03T13:18:32;95036.75;;;11.12;30.53
11415;BME280;5763;42.714;23.244;2023-02-03T13:21:01;95037.31;;;10.14;32.41
11415;BME280;5763;42.714;23.244;2023-02-03T13:23:28;95028.84;;;9.59;34.10
11415;BME280;5763;42.714;23.244;2023-02-03T13:26:19;95026.47;;;10.48;33.29
11415;BME280;5763;42.714;23.244;2023-02-03T13:29:05;95027.47;;;11.10;32.36
11415;BME280;5763;42.714;23.244;2023-02-03T13:31:43;95035.72;;;10.97;32.21
11415;BME280;5763;42.714;23.244;2023-02-03T13:34:27;95015.88;;;10.25;31.97
11415;BME280;5763;42.714;23.244;2023-02-03T13:40:08;95031.81;;;8.50;35.67